sensor_id;sensor_type;location;lat;lon;timestamp;P1;durP1;ratioP1;P2;durP2;ratioP2
21677;SDS011;11000;50.360;7.582;2023-04-03T00:01:14;5.20;;;1.97;;
21677;SDS011;11000;50.360;7.582;2023-04-03T00:03:35;3.23;;;1.83;;
21677;SDS011;11000;50.360;7.582;2023-04-03T00:05:56;2.77;;;1.63;;
21677;SDS011;11000;50.360;7.582;2023-04-03T00:08:17;2.53;;;1.87;;
21677;SDS011;11000;50.360;7.582;2023-04-03T00:10:37;3.07;;;2.37;;
21677;SDS011;11000;50.360;7.582;2023-04-03T00:12:58;2.43;;;1.47;;
21677;SDS011;11000;50.360;7.582;2023-04-03T00:15:18;4.07;;;2.20;;
21677;SDS011;11000;50.360;7.582;2023-04-03T00:17:39;5.03;;;2.10;;
21677;SDS011;11000;50.360;7.582;2023-04-03T00:20:00;4.73;;;1.90;;
21677;SDS011;11000;50.360;7.582;2023-04-03T00:22:21;5.13;;;2.27;;
21677;SDS011;11000;50.360;7.582;2023-04-03T00:24:42;3.97;;;2.47;;
21677;SDS011;11000;50.360;7.582;2023-04-03T00:27:02;2.20;;;1.83;;
21677;SDS011;11000;50.360;7.582;2023-04-03T00:29:23;3.37;;;2.03;;
21677;SDS011;11000;50.360;7.582;2023-04-03T00:31:43;3.87;;;1.83;;
21677;SDS011;11000;50.360;7.582;2023-04-03T00:34:04;2.43;;;1.73;;
21677;SDS011;11000;50.360;7.582;2023-04-03T00:36:24;4.13;;;2.27;;
21677;SDS011;11000;50.360;7.582;2023-04-03T00:38:45;3.67;;;2.10;;
21677;SDS011;11000;50.360;7.582;2023-04-03T00:41:05;4.37;;;1.93;;
21677;SDS011;11000;50.360;7.582;2023-04-03T00:43:27;4.67;;;2.20;;
21677;SDS011;11000;50.360;7.582;2023-04-03T00:45:49;3.40;;;2.00;;
21677;SDS011;11000;50.360;7.582;2023-04-03T00:48:12;2.27;;;1.77;;
21677;SDS011;11000;50.360;7.582;2023-04-03T00:50:37;4.30;;;1.90;;
21677;SDS011;11000;50.360;7.582;2023-04-03T00:53:00;3.83;;;2.13;;
21677;SDS011;11000;50.360;7.582;2023-04-03T00:55:21;3.93;;;2.10;;
21677;SDS011;11000;50.360;7.582;2023-04-03T00:57:42;2.30;;;1.90;;
21677;SDS011;11000;50.360;7.582;2023-04-03T01:00:07;3.60;;;1.60;;
21677;SDS011;11000;50.360;7.582;2023-04-03T01:02:31;4.10;;;2.20;;
21677;SDS011;11000;50.360;7.582;2023-04-03T01:04:52;2.60;;;1.87;;
21677;SDS011;11000;50.360;7.582;2023-04-03T01:07:20;3.83;;;1.83;;
21677;SDS011;11000;50.360;7.582;2023-04-03T01:09:43;3.80;;;2.27;;
21677;SDS011;11000;50.360;7.582;2023-04-03T01:12:17;2.30;;;1.77;;
21677;SDS011;11000;50.360;7.582;2023-04-03T01:14:43;4.10;;;1.97;;
21677;SDS011;11000;50.360;7.582;2023-04-03T01:17:23;4.23;;;2.00;;
21677;SDS011;11000;50.360;7.582;2023-04-03T01:19:47;2.47;;;1.60;;
21677;SDS011;11000;50.360;7.582;2023-04-03T01:22:19;1.63;;;1.33;;
21677;SDS011;11000;50.360;7.582;2023-04-03T01:24:50;2.57;;;1.27;;
21677;SDS011;11000;50.360;7.582;2023-04-03T01:27:13;5.00;;;2.03;;
21677;SDS011;11000;50.360;7.582;2023-04-03T01:29:33;2.17;;;1.70;;
21677;SDS011;11000;50.360;7.582;2023-04-03T01:31:56;1.60;;;1.50;;
21677;SDS011;11000;50.360;7.582;2023-04-03T01:34:18;2.50;;;1.70;;
21677;SDS011;11000;50.360;7.582;2023-04-03T01:36:38;2.90;;;1.63;;
21677;SDS011;11000;50.360;7.582;2023-04-03T01:39:00;6.03;;;2.10;;
21677;SDS011;11000;50.360;7.582;2023-04-03T01:41:21;4.73;;;1.70;;
21677;SDS011;11000;50.360;7.582;2023-04-03T01:43:42;4.43;;;1.90;;
21677;SDS011;11000;50.360;7.582;2023-04-03T01:46:03;2.57;;;1.60;;
21677;SDS011;11000;50.360;7.582;2023-04-03T01:48:24;3.13;;;1.93;;
21677;SDS011;11000;50.360;7.582;2023-04-03T01:50:44;4.70;;;1.93;;
21677;SDS011;11000;50.360;7.582;2023-04-03T01:53:05;3.10;;;1.83;;
21677;SDS011;11000;50.360;7.582;2023-04-03T01:55:26;3.17;;;1.60;;
21677;SDS011;11000;50.360;7.582;2023-04-03T01:57:46;2.43;;;1.87;;
21677;SDS011;11000;50.360;7.582;2023-04-03T02:00:07;4.47;;;1.80;;
21677;SDS011;11000;50.360;7.582;2023-04-03T02:02:29;3.07;;;1.70;;
21677;SDS011;11000;50.360;7.582;2023-04-03T02:04:49;3.90;;;1.77;;
21677;SDS011;11000;50.360;7.582;2023-04-03T02:07:10;5.63;;;2.07;;
21677;SDS011;11000;50.360;7.582;2023-04-03T02:09:30;3.43;;;1.67;;
21677;SDS011;11000;50.360;7.582;2023-04-03T02:11:51;4.23;;;1.70;;
21677;SDS011;11000;50.360;7.582;2023-04-03T02:14:11;1.93;;;1.37;;
21677;SDS011;11000;50.360;7.582;2023-04-03T02:16:32;2.80;;;1.53;;
21677;SDS011;11000;50.360;7.582;2023-04-03T02:18:52;2.93;;;1.57;;
21677;SDS011;11000;50.360;7.582;2023-04-03T02:21:13;1.60;;;1.30;;
21677;SDS011;11000;50.360;7.582;2023-04-03T02:23:33;5.37;;;1.90;;
21677;SDS011;11000;50.360;7.582;2023-04-03T02:26:07;3.70;;;1.33;;
21677;SDS011;11000;50.360;7.582;2023-04-03T02:28:29;5.17;;;1.70;;
21677;SDS011;11000;50.360;7.582;2023-04-03T02:30:49;2.13;;;1.60;;
21677;SDS011;11000;50.360;7.582;2023-04-03T02:33:10;3.37;;;1.73;;
21677;SDS011;11000;50.360;7.582;2023-04-03T02:35:30;3.17;;;1.47;;
21677;SDS011;11000;50.360;7.582;2023-04-03T02:37:51;1.97;;;1.50;;
21677;SDS011;11000;50.360;7.582;2023-04-03T02:40:11;3.97;;;1.73;;
21677;SDS011;11000;50.360;7.582;2023-04-03T02:42:32;3.13;;;1.90;;
21677;SDS011;11000;50.360;7.582;2023-04-03T02:44:52;1.70;;;1.43;;
21677;SDS011;11000;50.360;7.582;2023-04-03T02:47:13;2.33;;;1.60;;
21677;SDS011;11000;50.360;7.582;2023-04-03T02:49:34;1.30;;;1.20;;
21677;SDS011;11000;50.360;7.582;2023-04-03T02:51:54;2.83;;;1.70;;
21677;SDS011;11000;50.360;7.582;2023-04-03T02:54:15;2.97;;;1.80;;
21677;SDS011;11000;50.360;7.582;2023-04-03T02:56:35;3.90;;;1.83;;
21677;SDS011;11000;50.360;7.582;2023-04-03T02:58:56;5.67;;;2.07;;
21677;SDS011;11000;50.360;7.582;2023-04-03T03:01:17;3.60;;;1.87;;
21677;SDS011;11000;50.360;7.582;2023-04-03T03:03:38;3.97;;;2.20;;
21677;SDS011;11000;50.360;7.582;2023-04-03T03:06:05;3.60;;;1.67;;
21677;SDS011;11000;50.360;7.582;2023-04-03T03:08:27;2.43;;;1.90;;
21677;SDS011;11000;50.360;7.582;2023-04-03T03:10:48;2.90;;;1.87;;
21677;SDS011;11000;50.360;7.582;2023-04-03T03:13:09;2.70;;;1.60;;
21677;SDS011;11000;50.360;7.582;2023-04-03T03:15:29;3.20;;;1.67;;
21677;SDS011;11000;50.360;7.582;2023-04-03T03:17:50;4.00;;;2.13;;
21677;SDS011;11000;50.360;7.582;2023-04-03T03:20:11;5.03;;;1.93;;
21677;SDS011;11000;50.360;7.582;2023-04-03T03:22:34;2.37;;;1.90;;
21677;SDS011;11000;50.360;7.582;2023-04-03T03:24:55;2.30;;;1.77;;
21677;SDS011;11000;50.360;7.582;2023-04-03T03:27:15;2.23;;;1.73;;
21677;SDS011;11000;50.360;7.582;2023-04-03T03:29:36;13.07;;;2.10;;
21677;SDS011;11000;50.360;7.582;2023-04-03T03:31:56;4.33;;;1.90;;
21677;SDS011;11000;50.360;7.582;2023-04-03T03:34:17;6.20;;;1.77;;
21677;SDS011;11000;50.360;7.582;2023-04-03T03:36:37;2.17;;;1.90;;
21677;SDS011;11000;50.360;7.582;2023-04-03T03:38:58;2.00;;;1.80;;
21677;SDS011;11000;50.360;7.582;2023-04-03T03:41:19;4.87;;;1.83;;
21677;SDS011;11000;50.360;7.582;2023-04-03T03:43:39;2.50;;;1.90;;
21677;SDS011;11000;50.360;7.582;2023-04-03T03:46:00;3.10;;;2.13;;
21677;SDS011;11000;50.360;7.582;2023-04-03T03:48:21;3.10;;;2.03;;
21677;SDS011;11000;50.360;7.582;2023-04-03T03:50:42;3.93;;;2.00;;
21677;SDS011;11000;50.360;7.582;2023-04-03T03:53:02;3.93;;;1.93;;
21677;SDS011;11000;50.360;7.582;2023-04-03T03:55:23;4.37;;;2.10;;
21677;SDS011;11000;50.360;7.582;2023-04-03T03:57:43;3.30;;;1.83;;
21677;SDS011;11000;50.360;7.582;2023-04-03T04:00:04;4.40;;;2.20;;
21677;SDS011;11000;50.360;7.582;2023-04-03T04:02:27;2.83;;;1.70;;
21677;SDS011;11000;50.360;7.582;2023-04-03T04:04:48;3.50;;;1.90;;
21677;SDS011;11000;50.360;7.582;2023-04-03T04:07:08;3.67;;;1.80;;
21677;SDS011;11000;50.360;7.582;2023-04-03T04:09:29;3.40;;;1.60;;
21677;SDS011;11000;50.360;7.582;2023-04-03T04:11:50;5.87;;;1.80;;
21677;SDS011;11000;50.360;7.582;2023-04-03T04:14:10;2.03;;;1.60;;
21677;SDS011;11000;50.360;7.582;2023-04-03T04:16:32;3.77;;;1.90;;
21677;SDS011;11000;50.360;7.582;2023-04-03T04:18:52;3.73;;;1.93;;
21677;SDS011;11000;50.360;7.582;2023-04-03T04:21:13;2.60;;;1.50;;
21677;SDS011;11000;50.360;7.582;2023-04-03T04:23:34;2.97;;;1.93;;
21677;SDS011;11000;50.360;7.582;2023-04-03T04:25:54;4.30;;;2.10;;
21677;SDS011;11000;50.360;7.582;2023-04-03T04:28:15;4.47;;;2.07;;
21677;SDS011;11000;50.360;7.582;2023-04-03T04:30:36;6.03;;;2.20;;
21677;SDS011;11000;50.360;7.582;2023-04-03T04:32:56;3.00;;;1.97;;
21677;SDS011;11000;50.360;7.582;2023-04-03T04:35:17;3.63;;;2.07;;
21677;SDS011;11000;50.360;7.582;2023-04-03T04:37:37;4.87;;;1.90;;
21677;SDS011;11000;50.360;7.582;2023-04-03T04:39:58;3.17;;;1.70;;
21677;SDS011;11000;50.360;7.582;2023-04-03T04:42:18;3.47;;;2.17;;
21677;SDS011;11000;50.360;7.582;2023-04-03T04:44:39;3.50;;;1.30;;
21677;SDS011;11000;50.360;7.582;2023-04-03T04:47:00;1.27;;;1.03;;
21677;SDS011;11000;50.360;7.582;2023-04-03T04:49:20;3.30;;;1.47;;
21677;SDS011;11000;50.360;7.582;2023-04-03T04:51:41;2.03;;;0.90;;
21677;SDS011;11000;50.360;7.582;2023-04-03T04:54:01;4.17;;;1.30;;
21677;SDS011;11000;50.360;7.582;2023-04-03T04:56:22;3.23;;;1.30;;
21677;SDS011;11000;50.360;7.582;2023-04-03T04:58:42;3.47;;;1.00;;
21677;SDS011;11000;50.360;7.582;2023-04-03T05:01:03;3.73;;;1.23;;
21677;SDS011;11000;50.360;7.582;2023-04-03T05:03:25;4.43;;;1.60;;
21677;SDS011;11000;50.360;7.582;2023-04-03T05:05:46;4.37;;;1.57;;
21677;SDS011;11000;50.360;7.582;2023-04-03T05:08:06;4.53;;;1.20;;
21677;SDS011;11000;50.360;7.582;2023-04-03T05:10:28;4.33;;;1.77;;
21677;SDS011;11000;50.360;7.582;2023-04-03T05:12:49;2.23;;;1.00;;
21677;SDS011;11000;50.360;7.582;2023-04-03T05:15:09;4.13;;;2.50;;
21677;SDS011;11000;50.360;7.582;2023-04-03T05:17:30;2.90;;;1.10;;
21677;SDS011;11000;50.360;7.582;2023-04-03T05:19:50;1.97;;;1.30;;
21677;SDS011;11000;50.360;7.582;2023-04-03T05:22:11;4.53;;;1.53;;
21677;SDS011;11000;50.360;7.582;2023-04-03T05:24:32;4.73;;;1.73;;
21677;SDS011;11000;50.360;7.582;2023-04-03T05:26:52;2.73;;;0.83;;
21677;SDS011;11000;50.360;7.582;2023-04-03T05:29:13;3.80;;;1.10;;
21677;SDS011;11000;50.360;7.582;2023-04-03T05:31:33;2.53;;;1.10;;
21677;SDS011;11000;50.360;7.582;2023-04-03T05:33:54;2.33;;;1.00;;
21677;SDS011;11000;50.360;7.582;2023-04-03T05:36:15;2.33;;;1.20;;
21677;SDS011;11000;50.360;7.582;2023-04-03T05:38:36;2.47;;;1.47;;
21677;SDS011;11000;50.360;7.582;2023-04-03T05:40:56;2.97;;;1.33;;
21677;SDS011;11000;50.360;7.582;2023-04-03T05:43:17;3.07;;;1.30;;
21677;SDS011;11000;50.360;7.582;2023-04-03T05:45:37;4.30;;;1.40;;
21677;SDS011;11000;50.360;7.582;2023-04-03T05:47:58;6.03;;;1.20;;
21677;SDS011;11000;50.360;7.582;2023-04-03T05:50:18;4.20;;;1.30;;
21677;SDS011;11000;50.360;7.582;2023-04-03T05:52:43;3.50;;;1.20;;
21677;SDS011;11000;50.360;7.582;2023-04-03T05:55:05;4.23;;;1.33;;
21677;SDS011;11000;50.360;7.582;2023-04-03T05:57:26;3.90;;;1.23;;
21677;SDS011;11000;50.360;7.582;2023-04-03T05:59:47;1.70;;;0.90;;
21677;SDS011;11000;50.360;7.582;2023-04-03T06:02:10;7.07;;;1.87;;
21677;SDS011;11000;50.360;7.582;2023-04-03T06:04:41;6.47;;;1.40;;
21677;SDS011;11000;50.360;7.582;2023-04-03T06:07:01;2.60;;;1.63;;
21677;SDS011;11000;50.360;7.582;2023-04-03T06:09:23;4.47;;;1.30;;
21677;SDS011;11000;50.360;7.582;2023-04-03T06:11:45;3.27;;;0.80;;
21677;SDS011;11000;50.360;7.582;2023-04-03T06:14:06;3.17;;;1.30;;
21677;SDS011;11000;50.360;7.582;2023-04-03T06:16:26;3.60;;;1.10;;
21677;SDS011;11000;50.360;7.582;2023-04-03T06:18:47;3.20;;;1.10;;
21677;SDS011;11000;50.360;7.582;2023-04-03T06:21:08;5.97;;;1.20;;
21677;SDS011;11000;50.360;7.582;2023-04-03T06:23:28;5.30;;;1.70;;
21677;SDS011;11000;50.360;7.582;2023-04-03T06:25:49;4.10;;;1.17;;
21677;SDS011;11000;50.360;7.582;2023-04-03T06:28:10;4.10;;;1.20;;
21677;SDS011;11000;50.360;7.582;2023-04-03T06:30:30;4.90;;;1.40;;
21677;SDS011;11000;50.360;7.582;2023-04-03T06:32:51;2.13;;;1.20;;
21677;SDS011;11000;50.360;7.582;2023-04-03T06:35:12;4.10;;;1.37;;
21677;SDS011;11000;50.360;7.582;2023-04-03T06:37:32;3.57;;;1.37;;
21677;SDS011;11000;50.360;7.582;2023-04-03T06:39:53;2.90;;;1.20;;
21677;SDS011;11000;50.360;7.582;2023-04-03T06:42:14;4.40;;;1.10;;
21677;SDS011;11000;50.360;7.582;2023-04-03T06:44:35;5.17;;;1.13;;
21677;SDS011;11000;50.360;7.582;2023-04-03T06:46:55;3.77;;;1.20;;
21677;SDS011;11000;50.360;7.582;2023-04-03T06:49:16;3.63;;;1.17;;
21677;SDS011;11000;50.360;7.582;2023-04-03T06:51:36;4.20;;;1.60;;
21677;SDS011;11000;50.360;7.582;2023-04-03T06:53:58;5.70;;;1.17;;
21677;SDS011;11000;50.360;7.582;2023-04-03T06:56:19;4.60;;;1.60;;
21677;SDS011;11000;50.360;7.582;2023-04-03T06:58:40;2.87;;;1.30;;
21677;SDS011;11000;50.360;7.582;2023-04-03T07:01:01;3.07;;;1.43;;
21677;SDS011;11000;50.360;7.582;2023-04-03T07:03:22;2.70;;;1.33;;
21677;SDS011;11000;50.360;7.582;2023-04-03T07:05:43;4.37;;;1.20;;
21677;SDS011;11000;50.360;7.582;2023-04-03T07:08:04;3.17;;;0.97;;
21677;SDS011;11000;50.360;7.582;2023-04-03T07:10:25;4.10;;;1.10;;
21677;SDS011;11000;50.360;7.582;2023-04-03T07:12:45;2.27;;;1.03;;
21677;SDS011;11000;50.360;7.582;2023-04-03T07:15:06;2.97;;;1.30;;
21677;SDS011;11000;50.360;7.582;2023-04-03T07:17:28;6.07;;;1.70;;
21677;SDS011;11000;50.360;7.582;2023-04-03T07:19:48;2.13;;;0.87;;
21677;SDS011;11000;50.360;7.582;2023-04-03T07:22:09;1.73;;;1.07;;
21677;SDS011;11000;50.360;7.582;2023-04-03T07:24:30;3.30;;;1.37;;
21677;SDS011;11000;50.360;7.582;2023-04-03T07:26:52;3.70;;;1.23;;
21677;SDS011;11000;50.360;7.582;2023-04-03T07:29:13;2.57;;;0.93;;
21677;SDS011;11000;50.360;7.582;2023-04-03T07:31:33;3.90;;;1.10;;
21677;SDS011;11000;50.360;7.582;2023-04-03T07:33:54;4.00;;;1.40;;
21677;SDS011;11000;50.360;7.582;2023-04-03T07:36:16;3.10;;;1.30;;
21677;SDS011;11000;50.360;7.582;2023-04-03T07:38:39;4.97;;;1.40;;
21677;SDS011;11000;50.360;7.582;2023-04-03T07:41:00;4.63;;;1.67;;
21677;SDS011;11000;50.360;7.582;2023-04-03T07:43:21;3.50;;;1.10;;
21677;SDS011;11000;50.360;7.582;2023-04-03T07:45:42;8.97;;;1.40;;
21677;SDS011;11000;50.360;7.582;2023-04-03T07:48:03;3.77;;;1.53;;
21677;SDS011;11000;50.360;7.582;2023-04-03T07:50:23;4.77;;;1.40;;
21677;SDS011;11000;50.360;7.582;2023-04-03T07:52:45;2.93;;;1.40;;
21677;SDS011;11000;50.360;7.582;2023-04-03T07:55:06;8.47;;;1.67;;
21677;SDS011;11000;50.360;7.582;2023-04-03T07:57:27;4.77;;;1.50;;
21677;SDS011;11000;50.360;7.582;2023-04-03T07:59:47;3.03;;;1.23;;
21677;SDS011;11000;50.360;7.582;2023-04-03T08:02:09;4.03;;;1.30;;
21677;SDS011;11000;50.360;7.582;2023-04-03T08:04:30;8.80;;;1.70;;
21677;SDS011;11000;50.360;7.582;2023-04-03T08:06:50;4.30;;;1.23;;
21677;SDS011;11000;50.360;7.582;2023-04-03T08:09:11;4.40;;;1.23;;
21677;SDS011;11000;50.360;7.582;2023-04-03T08:11:31;4.37;;;1.17;;
21677;SDS011;11000;50.360;7.582;2023-04-03T08:13:52;2.27;;;1.00;;
21677;SDS011;11000;50.360;7.582;2023-04-03T08:16:16;2.00;;;1.40;;
21677;SDS011;11000;50.360;7.582;2023-04-03T08:18:38;1.90;;;1.47;;
21677;SDS011;11000;50.360;7.582;2023-04-03T08:20:59;4.43;;;1.30;;
21677;SDS011;11000;50.360;7.582;2023-04-03T08:23:20;3.83;;;1.17;;
21677;SDS011;11000;50.360;7.582;2023-04-03T08:25:41;2.13;;;1.10;;
21677;SDS011;11000;50.360;7.582;2023-04-03T08:28:02;2.60;;;1.43;;
21677;SDS011;11000;50.360;7.582;2023-04-03T08:30:22;4.63;;;1.27;;
21677;SDS011;11000;50.360;7.582;2023-04-03T08:32:43;3.30;;;1.20;;
21677;SDS011;11000;50.360;7.582;2023-04-03T08:35:04;4.07;;;1.30;;
21677;SDS011;11000;50.360;7.582;2023-04-03T08:37:25;3.40;;;1.40;;
21677;SDS011;11000;50.360;7.582;2023-04-03T08:39:46;3.43;;;1.10;;
21677;SDS011;11000;50.360;7.582;2023-04-03T08:42:14;4.30;;;1.20;;
21677;SDS011;11000;50.360;7.582;2023-04-03T08:44:47;5.00;;;1.60;;
21677;SDS011;11000;50.360;7.582;2023-04-03T08:49:46;2.17;;;1.17;;
21677;SDS011;11000;50.360;7.582;2023-04-03T08:52:11;3.20;;;1.20;;
21677;SDS011;11000;50.360;7.582;2023-04-03T08:54:37;4.87;;;1.40;;
21677;SDS011;11000;50.360;7.582;2023-04-03T08:57:15;4.40;;;1.60;;
21677;SDS011;11000;50.360;7.582;2023-04-03T08:59:37;5.17;;;1.30;;
21677;SDS011;11000;50.360;7.582;2023-04-03T09:02:00;2.67;;;1.30;;
21677;SDS011;11000;50.360;7.582;2023-04-03T09:04:26;2.97;;;1.30;;
21677;SDS011;11000;50.360;7.582;2023-04-03T09:06:55;5.13;;;1.83;;
21677;SDS011;11000;50.360;7.582;2023-04-03T09:09:36;6.33;;;1.40;;
21677;SDS011;11000;50.360;7.582;2023-04-03T09:12:06;4.97;;;1.80;;
21677;SDS011;11000;50.360;7.582;2023-04-03T09:14:54;6.30;;;1.43;;
21677;SDS011;11000;50.360;7.582;2023-04-03T09:20:13;6.37;;;1.60;;
21677;SDS011;11000;50.360;7.582;2023-04-03T09:22:41;4.00;;;1.33;;
21677;SDS011;11000;50.360;7.582;2023-04-03T09:27:35;2.60;;;1.10;;
21677;SDS011;11000;50.360;7.582;2023-04-03T09:29:56;3.63;;;1.53;;
21677;SDS011;11000;50.360;7.582;2023-04-03T09:32:30;3.37;;;1.40;;
21677;SDS011;11000;50.360;7.582;2023-04-03T09:34:53;3.47;;;1.40;;
21677;SDS011;11000;50.360;7.582;2023-04-03T09:38:14;2.97;;;1.17;;
21677;SDS011;11000;50.360;7.582;2023-04-03T09:40:03;2.07;;;1.13;;
21677;SDS011;11000;50.360;7.582;2023-04-03T09:42:24;4.93;;;1.27;;
21677;SDS011;11000;50.360;7.582;2023-04-03T09:44:53;4.47;;;1.50;;
21677;SDS011;11000;50.360;7.582;2023-04-03T09:52:34;5.20;;;1.30;;
21677;SDS011;11000;50.360;7.582;2023-04-03T09:54:54;3.23;;;1.40;;
21677;SDS011;11000;50.360;7.582;2023-04-03T09:57:36;3.90;;;1.33;;
21677;SDS011;11000;50.360;7.582;2023-04-03T09:59:58;2.87;;;1.33;;
21677;SDS011;11000;50.360;7.582;2023-04-03T10:04:44;1.73;;;1.10;;
21677;SDS011;11000;50.360;7.582;2023-04-03T10:07:08;3.70;;;1.20;;
21677;SDS011;11000;50.360;7.582;2023-04-03T10:09:54;4.90;;;1.40;;
21677;SDS011;11000;50.360;7.582;2023-04-03T10:12:16;1.10;;;1.00;;
21677;SDS011;11000;50.360;7.582;2023-04-03T10:14:53;2.97;;;1.17;;
21677;SDS011;11000;50.360;7.582;2023-04-03T10:24:57;4.10;;;1.40;;
21677;SDS011;11000;50.360;7.582;2023-04-03T10:27:27;4.53;;;1.37;;
21677;SDS011;11000;50.360;7.582;2023-04-03T10:30:16;3.07;;;1.40;;
21677;SDS011;11000;50.360;7.582;2023-04-03T10:32:51;3.17;;;1.47;;
21677;SDS011;11000;50.360;7.582;2023-04-03T10:35:41;6.87;;;1.50;;
21677;SDS011;11000;50.360;7.582;2023-04-03T10:41:32;4.40;;;1.30;;
21677;SDS011;11000;50.360;7.582;2023-04-03T10:44:20;2.97;;;1.77;;
21677;SDS011;11000;50.360;7.582;2023-04-03T10:47:09;3.87;;;1.30;;
21677;SDS011;11000;50.360;7.582;2023-04-03T10:49:45;2.80;;;1.33;;
21677;SDS011;11000;50.360;7.582;2023-04-03T10:55:02;4.13;;;1.40;;
21677;SDS011;11000;50.360;7.582;2023-04-03T10:57:33;4.07;;;1.23;;
21677;SDS011;11000;50.360;7.582;2023-04-03T10:59:55;3.80;;;1.20;;
21677;SDS011;11000;50.360;7.582;2023-04-03T11:02:28;3.40;;;1.27;;
21677;SDS011;11000;50.360;7.582;2023-04-03T11:07:56;2.87;;;1.40;;
21677;SDS011;11000;50.360;7.582;2023-04-03T11:10:34;4.53;;;1.40;;
21677;SDS011;11000;50.360;7.582;2023-04-03T11:13:14;1.77;;;0.87;;
21677;SDS011;11000;50.360;7.582;2023-04-03T11:15:39;2.73;;;1.03;;
21677;SDS011;11000;50.360;7.582;2023-04-03T11:18:02;3.50;;;1.10;;
21677;SDS011;11000;50.360;7.582;2023-04-03T11:20:30;1.93;;;1.30;;
21677;SDS011;11000;50.360;7.582;2023-04-03T11:25:24;3.33;;;0.97;;
21677;SDS011;11000;50.360;7.582;2023-04-03T11:28:02;4.40;;;1.30;;
21677;SDS011;11000;50.360;7.582;2023-04-03T11:30:27;3.53;;;1.40;;
21677;SDS011;11000;50.360;7.582;2023-04-03T11:35:26;2.83;;;1.67;;
21677;SDS011;11000;50.360;7.582;2023-04-03T11:37:51;2.47;;;1.00;;
21677;SDS011;11000;50.360;7.582;2023-04-03T11:42:38;2.50;;;1.23;;
21677;SDS011;11000;50.360;7.582;2023-04-03T11:45:17;2.17;;;1.07;;
21677;SDS011;11000;50.360;7.582;2023-04-03T11:48:41;5.07;;;1.37;;
21677;SDS011;11000;50.360;7.582;2023-04-03T11:50:47;2.13;;;1.07;;
21677;SDS011;11000;50.360;7.582;2023-04-03T11:53:25;1.67;;;1.30;;
21677;SDS011;11000;50.360;7.582;2023-04-03T11:55:58;2.07;;;1.23;;
21677;SDS011;11000;50.360;7.582;2023-04-03T11:58:21;5.20;;;1.27;;
21677;SDS011;11000;50.360;7.582;2023-04-03T12:03:22;4.03;;;1.23;;
21677;SDS011;11000;50.360;7.582;2023-04-03T12:05:46;2.60;;;1.27;;
21677;SDS011;11000;50.360;7.582;2023-04-03T12:08:15;1.10;;;1.00;;
21677;SDS011;11000;50.360;7.582;2023-04-03T12:13:32;2.07;;;0.97;;
21677;SDS011;11000;50.360;7.582;2023-04-03T12:15:52;3.77;;;1.40;;
21677;SDS011;11000;50.360;7.582;2023-04-03T12:21:02;1.60;;;1.13;;
21677;SDS011;11000;50.360;7.582;2023-04-03T12:25:48;1.60;;;0.90;;
21677;SDS011;11000;50.360;7.582;2023-04-03T12:28:10;2.17;;;1.27;;
21677;SDS011;11000;50.360;7.582;2023-04-03T12:30:31;3.07;;;1.10;;
21677;SDS011;11000;50.360;7.582;2023-04-03T12:38:05;1.80;;;1.10;;
21677;SDS011;11000;50.360;7.582;2023-04-03T12:40:37;2.67;;;1.17;;
21677;SDS011;11000;50.360;7.582;2023-04-03T12:45:36;1.43;;;1.07;;
21677;SDS011;11000;50.360;7.582;2023-04-03T12:48:08;3.10;;;1.53;;
21677;SDS011;11000;50.360;7.582;2023-04-03T12:50:37;4.07;;;1.40;;
21677;SDS011;11000;50.360;7.582;2023-04-03T12:53:01;2.80;;;1.03;;
21677;SDS011;11000;50.360;7.582;2023-04-03T12:55:25;1.43;;;1.10;;
21677;SDS011;11000;50.360;7.582;2023-04-03T12:57:46;2.00;;;1.27;;
21677;SDS011;11000;50.360;7.582;2023-04-03T13:02:53;1.77;;;1.10;;
21677;SDS011;11000;50.360;7.582;2023-04-03T13:05:15;2.07;;;1.10;;
21677;SDS011;11000;50.360;7.582;2023-04-03T13:07:38;4.80;;;1.90;;
21677;SDS011;11000;50.360;7.582;2023-04-03T13:10:13;2.63;;;1.40;;
21677;SDS011;11000;50.360;7.582;2023-04-03T13:12:45;2.47;;;1.20;;
21677;SDS011;11000;50.360;7.582;2023-04-03T13:15:15;3.57;;;1.30;;
21677;SDS011;11000;50.360;7.582;2023-04-03T13:17:47;3.57;;;1.30;;
21677;SDS011;11000;50.360;7.582;2023-04-03T13:20:11;1.70;;;1.20;;
21677;SDS011;11000;50.360;7.582;2023-04-03T13:22:45;1.73;;;1.10;;
21677;SDS011;11000;50.360;7.582;2023-04-03T13:25:16;2.87;;;1.40;;
21677;SDS011;11000;50.360;7.582;2023-04-03T13:27:40;5.17;;;1.50;;
21677;SDS011;11000;50.360;7.582;2023-04-03T13:30:03;3.70;;;1.10;;
21677;SDS011;11000;50.360;7.582;2023-04-03T13:32:26;2.17;;;1.20;;
21677;SDS011;11000;50.360;7.582;2023-04-03T13:34:48;4.90;;;1.73;;
21677;SDS011;11000;50.360;7.582;2023-04-03T13:37:23;1.90;;;1.03;;
21677;SDS011;11000;50.360;7.582;2023-04-03T13:39:55;1.80;;;0.93;;
21677;SDS011;11000;50.360;7.582;2023-04-03T13:42:26;2.43;;;1.07;;
21677;SDS011;11000;50.360;7.582;2023-04-03T13:47:41;2.53;;;1.10;;
21677;SDS011;11000;50.360;7.582;2023-04-03T13:50:24;2.13;;;1.20;;
21677;SDS011;11000;50.360;7.582;2023-04-03T13:57:50;2.10;;;0.93;;
21677;SDS011;11000;50.360;7.582;2023-04-03T14:00:19;1.50;;;1.20;;
21677;SDS011;11000;50.360;7.582;2023-04-03T14:02:46;1.23;;;0.90;;
21677;SDS011;11000;50.360;7.582;2023-04-03T14:05:07;1.90;;;1.17;;
21677;SDS011;11000;50.360;7.582;2023-04-03T14:07:29;2.03;;;1.17;;
21677;SDS011;11000;50.360;7.582;2023-04-03T14:09:51;1.63;;;0.80;;
21677;SDS011;11000;50.360;7.582;2023-04-03T14:12:17;2.03;;;1.20;;
21677;SDS011;11000;50.360;7.582;2023-04-03T14:14:44;1.77;;;1.27;;
21677;SDS011;11000;50.360;7.582;2023-04-03T14:17:12;2.00;;;1.03;;
21677;SDS011;11000;50.360;7.582;2023-04-03T14:19:36;3.90;;;1.20;;
21677;SDS011;11000;50.360;7.582;2023-04-03T14:21:57;2.60;;;0.93;;
21677;SDS011;11000;50.360;7.582;2023-04-03T14:24:19;1.40;;;1.20;;
21677;SDS011;11000;50.360;7.582;2023-04-03T14:26:41;3.13;;;0.97;;
21677;SDS011;11000;50.360;7.582;2023-04-03T14:29:01;2.93;;;1.10;;
21677;SDS011;11000;50.360;7.582;2023-04-03T14:31:22;2.53;;;1.10;;
21677;SDS011;11000;50.360;7.582;2023-04-03T14:33:43;2.23;;;1.30;;
21677;SDS011;11000;50.360;7.582;2023-04-03T14:36:13;1.60;;;1.00;;
21677;SDS011;11000;50.360;7.582;2023-04-03T14:38:35;2.80;;;1.00;;
21677;SDS011;11000;50.360;7.582;2023-04-03T14:40:57;2.67;;;1.20;;
21677;SDS011;11000;50.360;7.582;2023-04-03T14:43:18;2.27;;;0.80;;
21677;SDS011;11000;50.360;7.582;2023-04-03T14:45:39;2.80;;;0.77;;
21677;SDS011;11000;50.360;7.582;2023-04-03T14:48:00;2.43;;;1.20;;
21677;SDS011;11000;50.360;7.582;2023-04-03T14:50:23;1.83;;;1.13;;
21677;SDS011;11000;50.360;7.582;2023-04-03T14:52:46;3.77;;;1.10;;
21677;SDS011;11000;50.360;7.582;2023-04-03T14:55:09;3.53;;;0.93;;
21677;SDS011;11000;50.360;7.582;2023-04-03T14:57:39;2.10;;;0.93;;
21677;SDS011;11000;50.360;7.582;2023-04-03T15:00:00;1.63;;;0.90;;
21677;SDS011;11000;50.360;7.582;2023-04-03T15:02:24;3.30;;;1.10;;
21677;SDS011;11000;50.360;7.582;2023-04-03T15:04:50;1.90;;;1.00;;
21677;SDS011;11000;50.360;7.582;2023-04-03T15:07:10;3.13;;;1.20;;
21677;SDS011;11000;50.360;7.582;2023-04-03T15:09:31;1.27;;;0.70;;
21677;SDS011;11000;50.360;7.582;2023-04-03T15:11:52;1.90;;;1.10;;
21677;SDS011;11000;50.360;7.582;2023-04-03T15:14:13;2.37;;;1.50;;
21677;SDS011;11000;50.360;7.582;2023-04-03T15:16:34;2.97;;;1.17;;
21677;SDS011;11000;50.360;7.582;2023-04-03T15:18:55;3.00;;;1.10;;
21677;SDS011;11000;50.360;7.582;2023-04-03T15:21:16;2.17;;;1.33;;
21677;SDS011;11000;50.360;7.582;2023-04-03T15:23:36;2.47;;;1.07;;
21677;SDS011;11000;50.360;7.582;2023-04-03T15:25:57;2.00;;;0.90;;
21677;SDS011;11000;50.360;7.582;2023-04-03T15:28:18;2.93;;;0.87;;
21677;SDS011;11000;50.360;7.582;2023-04-03T15:30:53;2.20;;;1.10;;
21677;SDS011;11000;50.360;7.582;2023-04-03T15:33:14;1.97;;;0.77;;
21677;SDS011;11000;50.360;7.582;2023-04-03T15:35:35;3.83;;;1.00;;